Terminal Aerodrome Forecast
Issued by NWS

Home | Current Version | Previous Version | Text Only | Print | Product List | Glossary On
Versions: 1 2 3 4 5 6 7 8 9 10 11 12 13 14 15 16 17 18
188
FTUS44 KBMX 211243 AAA
TAFEET
TAF AMD
KEET 211243Z 2113/2212 00000KT P6SM SCT035 BKN250
      TEMPO 2113/2115 BKN035
     FM211500 14005KT P6SM SCT250
     FM211900 21005KT P6SM BKN250
     FM220300 31003KT P6SM SCT250=

USA.gov is the U.S. government's official web portal to all federal, state and local government web resources and services.